createdAt,value
2022-08-03T00:00:21.079Z,95855.00
2022-08-03T00:04:32.859Z,95848.00
2022-08-03T00:08:40.118Z,95846.00
2022-08-03T00:12:43.295Z,95847.00
2022-08-03T00:16:47.419Z,95853.00
2022-08-03T00:20:50.235Z,95844.00
2022-08-03T00:24:53.034Z,95853.00
2022-08-03T00:28:55.797Z,95840.00
2022-08-03T00:33:00.664Z,95847.00
2022-08-03T00:37:03.434Z,95839.00
2022-08-03T00:41:06.353Z,95839.00
2022-08-03T00:45:09.642Z,95835.00
2022-08-03T00:49:13.868Z,95829.00
2022-08-03T00:53:16.827Z,95820.00
2022-08-03T00:57:21.923Z,95833.00
2022-08-03T01:01:24.760Z,95826.00
2022-08-03T01:05:29.449Z,95828.00
2022-08-03T01:09:41.920Z,95825.00
2022-08-03T01:14:04.030Z,95822.00
2022-08-03T01:18:19.635Z,95818.00
2022-08-03T01:22:41.330Z,95817.00
2022-08-03T01:27:00.580Z,95808.00
2022-08-03T01:31:10.091Z,95810.00
2022-08-03T01:35:15.385Z,95818.00
2022-08-03T01:39:19.277Z,95813.00
2022-08-03T01:44:26.863Z,95812.00
2022-08-03T01:47:53.900Z,95806.00
2022-08-03T01:52:03.998Z,95807.00
2022-08-03T01:56:08.555Z,95803.00
2022-08-03T02:00:12.551Z,95803.00
2022-08-03T02:04:18.669Z,95798.00
2022-08-03T02:08:25.147Z,95801.00
2022-08-03T02:12:32.257Z,95795.00
2022-08-03T02:16:36.216Z,95806.00
2022-08-03T02:20:41.471Z,95813.00
2022-08-03T02:24:49.312Z,95799.00
2022-08-03T02:28:57.643Z,95804.00
2022-08-03T02:33:03.962Z,95804.00
2022-08-03T02:37:09.546Z,95807.00
2022-08-03T02:41:17.784Z,95796.00
2022-08-03T02:45:22.064Z,95805.00
2022-08-03T02:49:41.442Z,95805.00
2022-08-03T02:53:51.129Z,95799.00
2022-08-03T02:57:55.288Z,95798.00
2022-08-03T03:01:59.446Z,95798.00
2022-08-03T03:06:05.753Z,95801.00
2022-08-03T03:10:11.288Z,95802.00
2022-08-03T03:14:15.965Z,95793.00
2022-08-03T03:18:36.736Z,95801.00
2022-08-03T03:22:43.502Z,95788.00
2022-08-03T03:26:50.332Z,95792.00
2022-08-03T03:30:53.658Z,95800.00
2022-08-03T03:34:59.103Z,95784.00
2022-08-03T03:39:15.419Z,95786.00
2022-08-03T03:43:20.207Z,95782.00
2022-08-03T03:47:32.161Z,95783.00
2022-08-03T03:51:35.949Z,95790.00
2022-08-03T03:55:59.490Z,95790.00
2022-08-03T04:00:03.617Z,95794.00
2022-08-03T04:04:21.419Z,95786.00
2022-08-03T04:08:42.129Z,95796.00
2022-08-03T04:12:50.255Z,95791.00
2022-08-03T04:16:57.547Z,95803.00
2022-08-03T04:21:03.448Z,95798.00
2022-08-03T04:25:09.661Z,95785.00
2022-08-03T04:29:14.154Z,95792.00
2022-08-03T04:33:19.863Z,95793.00
2022-08-03T04:37:28.601Z,95793.00
2022-08-03T04:41:33.046Z,95793.00
2022-08-03T04:45:56.862Z,95791.00
2022-08-03T04:50:02.196Z,95801.00
2022-08-03T04:54:05.202Z,95801.00
2022-08-03T04:58:07.959Z,95806.00
2022-08-03T05:02:11.029Z,95808.00
2022-08-03T05:06:16.255Z,95814.00
2022-08-03T05:10:19.311Z,95816.00
2022-08-03T05:14:28.055Z,95824.00
2022-08-03T05:18:32.207Z,95821.00
2022-08-03T05:22:36.321Z,95823.00
2022-08-03T05:26:39.079Z,95821.00
2022-08-03T05:30:42.098Z,95822.00
2022-08-03T05:34:45.799Z,95828.00
2022-08-03T05:38:49.970Z,95824.00
2022-08-03T05:42:52.786Z,95828.00
2022-08-03T05:46:55.723Z,95828.00
2022-08-03T05:50:58.511Z,95823.00
2022-08-03T05:55:02.619Z,95817.00
2022-08-03T05:59:22.695Z,95811.00
2022-08-03T06:03:28.242Z,95813.00
2022-08-03T06:07:31.884Z,95807.00
2022-08-03T06:11:36.391Z,95798.00
2022-08-03T06:15:39.156Z,95791.00
2022-08-03T06:19:41.918Z,95792.00
2022-08-03T06:23:53.306Z,95795.00
2022-08-03T06:27:59.929Z,95803.00
2022-08-03T06:32:02.703Z,95807.00
2022-08-03T06:36:06.162Z,95809.00
2022-08-03T06:40:10.139Z,95816.00
2022-08-03T06:44:18.115Z,95825.00
2022-08-03T06:48:20.887Z,95834.00
2022-08-03T06:52:37.557Z,95846.00
2022-08-03T06:56:40.967Z,95846.00
2022-08-03T07:00:45.196Z,95859.00
2022-08-03T07:04:48.494Z,95853.00
2022-08-03T07:08:53.635Z,95859.00
2022-08-03T07:12:58.219Z,95851.00
2022-08-03T07:17:04.758Z,95850.00
2022-08-03T07:21:16.048Z,95858.00
2022-08-03T07:25:18.898Z,95856.00
2022-08-03T07:29:21.703Z,95857.00
2022-08-03T07:33:25.783Z,95853.00
2022-08-03T07:37:28.675Z,95852.00
2022-08-03T07:41:31.773Z,95859.00
2022-08-03T07:45:34.818Z,95852.00
2022-08-03T07:49:42.195Z,95848.00
2022-08-03T07:53:47.262Z,95855.00
2022-08-03T07:58:01.439Z,95855.00
2022-08-03T08:02:04.260Z,95846.00
2022-08-03T08:06:08.503Z,95847.00
2022-08-03T08:10:12.092Z,95842.00
2022-08-03T08:14:15.700Z,95842.00
2022-08-03T08:18:19.313Z,95836.00
2022-08-03T08:22:28.081Z,95833.00
2022-08-03T08:26:33.546Z,95834.00
2022-08-03T08:30:36.534Z,95827.00
2022-08-03T08:34:39.300Z,95833.00
2022-08-03T08:38:44.634Z,95817.00
2022-08-03T08:42:57.856Z,95815.00
2022-08-03T08:47:04.747Z,95819.00
2022-08-03T08:51:08.232Z,95806.00
2022-08-03T08:55:18.776Z,95802.00
2022-08-03T08:59:22.678Z,95796.00
2022-08-03T09:03:29.597Z,95792.00
2022-08-03T09:07:34.041Z,95793.00
2022-08-03T09:12:00.525Z,95792.00
2022-08-03T09:16:12.139Z,95785.00
2022-08-03T09:20:15.114Z,95792.00
2022-08-03T09:24:40.571Z,95794.00
2022-08-03T09:29:00.407Z,95798.00
2022-08-03T09:33:08.430Z,95782.00
2022-08-03T09:37:15.783Z,95795.00
2022-08-03T09:41:19.642Z,95800.00
2022-08-03T09:45:29.976Z,95808.00
2022-08-03T09:49:33.081Z,95792.00
2022-08-03T09:53:59.143Z,95804.00
2022-08-03T09:58:09.084Z,95802.00
2022-08-03T10:02:22.642Z,95802.00
2022-08-03T10:06:28.994Z,95793.00
2022-08-03T10:10:43.167Z,95798.00
2022-08-03T10:14:46.686Z,95800.00
2022-08-03T10:18:50.955Z,95792.00
2022-08-03T10:22:53.795Z,95792.00
2022-08-03T10:27:02.345Z,95794.00
2022-08-03T10:31:07.911Z,95781.00
2022-08-03T10:35:20.444Z,95790.00
2022-08-03T10:39:28.618Z,95794.00
2022-08-03T10:43:37.279Z,95790.00
2022-08-03T10:47:41.816Z,95790.00
2022-08-03T10:51:48.252Z,95781.00
2022-08-03T10:56:14.750Z,95778.00
2022-08-03T11:00:23.890Z,95776.00
2022-08-03T11:04:27.130Z,95774.00
2022-08-03T11:08:35.809Z,95776.00
2022-08-03T11:12:38.644Z,95771.00
2022-08-03T11:16:43.042Z,95776.00
2022-08-03T11:20:50.815Z,95781.00
2022-08-03T11:25:04.475Z,95774.00
2022-08-03T11:29:29.684Z,95782.00
2022-08-03T11:33:33.103Z,95767.00
2022-08-03T11:37:36.086Z,95770.00
2022-08-03T11:41:43.379Z,95761.00
2022-08-03T11:45:58.637Z,95762.00
2022-08-03T11:50:02.173Z,95769.00
2022-08-03T11:54:06.602Z,95755.00
2022-08-03T11:59:01.643Z,95763.00
2022-08-03T12:02:39.597Z,95758.00
2022-08-03T12:06:55.448Z,95749.00
2022-08-03T12:11:00.445Z,95745.00
2022-08-03T12:15:07.406Z,95740.00
2022-08-03T12:19:10.143Z,95725.00
2022-08-03T12:23:13.474Z,95720.00
2022-08-03T12:27:24.988Z,95723.00
2022-08-03T12:31:29.042Z,95711.00
2022-08-03T12:35:32.047Z,95711.00
2022-08-03T12:39:34.901Z,95719.00
2022-08-03T12:43:39.565Z,95711.00
2022-08-03T12:47:55.695Z,95702.00
2022-08-03T12:52:06.894Z,95700.00
2022-08-03T12:56:10.482Z,95689.00
2022-08-03T13:00:21.376Z,95693.00
2022-08-03T13:04:34.608Z,95703.00
2022-08-03T13:08:37.388Z,95692.00
2022-08-03T13:12:50.211Z,95702.00
2022-08-03T13:16:53.084Z,95702.00
2022-08-03T13:20:57.702Z,95705.00
2022-08-03T13:25:01.428Z,95715.00
2022-08-03T13:29:04.266Z,95710.00
2022-08-03T13:33:07.099Z,95721.00
2022-08-03T13:37:12.132Z,95725.00
2022-08-03T13:41:15.590Z,95719.00
2022-08-03T13:45:19.104Z,95728.00
2022-08-03T13:49:22.319Z,95723.00
2022-08-03T13:53:26.419Z,95720.00
2022-08-03T13:58:11.768Z,95726.00
2022-08-03T14:01:55.739Z,95718.00
2022-08-03T14:05:58.729Z,95717.00
2022-08-03T14:10:02.976Z,95726.00
2022-08-03T14:14:05.863Z,95720.00
2022-08-03T14:18:15.886Z,95726.00
2022-08-03T14:22:30.286Z,95724.00
2022-08-03T14:26:34.393Z,95723.00
2022-08-03T14:30:37.535Z,95726.00
2022-08-03T14:34:40.392Z,95730.00
2022-08-03T14:38:43.179Z,95725.00
2022-08-03T14:42:47.602Z,95727.00
2022-08-03T14:46:50.354Z,95720.00
2022-08-03T14:50:55.051Z,95722.00
2022-08-03T14:54:57.851Z,95709.00
2022-08-03T14:59:01.985Z,95717.00
2022-08-03T15:03:05.164Z,95715.00
2022-08-03T15:07:08.098Z,95711.00
2022-08-03T15:11:10.875Z,95705.00
2022-08-03T15:15:15.018Z,95699.00
2022-08-03T15:20:00.510Z,95696.00
2022-08-03T15:23:40.664Z,95702.00
2022-08-03T15:28:03.425Z,95702.00
2022-08-03T15:32:09.630Z,95698.00
2022-08-03T15:36:12.469Z,95690.00
2022-08-03T15:40:15.307Z,95696.00
2022-08-03T15:44:19.986Z,95690.00
2022-08-03T15:48:26.587Z,95695.00
2022-08-03T15:52:29.474Z,95680.00
2022-08-03T15:56:32.288Z,95686.00
2022-08-03T16:00:35.084Z,95685.00
2022-08-03T16:04:39.292Z,95675.00
2022-08-03T16:08:42.106Z,95679.00
2022-08-03T16:12:45.732Z,95684.00
2022-08-03T16:16:48.535Z,95677.00
2022-08-03T16:20:52.677Z,95673.00
2022-08-03T16:24:56.055Z,95678.00
2022-08-03T16:28:58.815Z,95677.00
2022-08-03T16:33:01.816Z,95679.00
2022-08-03T16:37:28.476Z,95669.00
2022-08-03T16:41:54.078Z,95659.00
2022-08-03T16:45:53.926Z,95672.00
2022-08-03T16:49:56.898Z,95667.00
2022-08-03T16:54:07.329Z,95670.00
2022-08-03T16:58:12.511Z,95672.00
2022-08-03T17:02:22.104Z,95670.00
2022-08-03T17:06:34.159Z,95672.00
2022-08-03T17:10:41.272Z,95664.00
2022-08-03T17:14:47.376Z,95666.00
2022-08-03T17:18:53.543Z,95672.00
2022-08-03T17:23:02.712Z,95670.00
2022-08-03T17:27:23.179Z,95668.00
2022-08-03T17:31:48.591Z,95667.00
2022-08-03T17:35:55.341Z,95669.00
2022-08-03T17:40:03.825Z,95677.00
2022-08-03T17:44:33.098Z,95693.00
2022-08-03T17:48:44.167Z,95682.00
2022-08-03T17:52:48.694Z,95695.00
2022-08-03T17:56:58.210Z,95690.00
2022-08-03T18:01:59.605Z,95698.00
2022-08-03T18:06:12.004Z,95700.00
2022-08-03T18:14:39.197Z,95720.00
2022-08-03T18:18:45.402Z,95707.00
2022-08-03T18:22:51.844Z,95711.00
2022-08-03T18:26:57.027Z,95722.00
2022-08-03T18:31:06.130Z,95727.00
2022-08-03T18:35:13.619Z,95723.00
2022-08-03T18:39:16.790Z,95727.00
2022-08-03T18:43:46.168Z,95729.00
2022-08-03T18:47:55.251Z,95731.00
2022-08-03T18:52:05.288Z,95723.00
2022-08-03T18:56:24.358Z,95721.00
2022-08-03T19:00:42.499Z,95731.00
2022-08-03T19:04:55.313Z,95726.00
2022-08-03T19:09:06.518Z,95727.00
2022-08-03T19:13:20.699Z,95734.00
2022-08-03T19:17:35.906Z,95730.00
2022-08-03T19:21:41.946Z,95740.00
2022-08-03T19:25:46.423Z,95737.00
2022-08-03T19:29:58.579Z,95744.00
2022-08-03T19:34:04.461Z,95744.00
2022-08-03T19:38:07.728Z,95744.00
2022-08-03T19:42:22.958Z,95747.00
2022-08-03T19:46:30.873Z,95749.00
2022-08-03T19:50:36.420Z,95752.00
2022-08-03T19:54:53.658Z,95745.00
2022-08-03T19:58:59.897Z,95750.00
2022-08-03T20:03:03.441Z,95746.00
2022-08-03T20:07:06.523Z,95740.00
2022-08-03T20:11:12.149Z,95748.00
2022-08-03T20:15:18.317Z,95741.00
2022-08-03T20:19:35.178Z,95753.00
2022-08-03T20:24:01.947Z,95744.00
2022-08-03T20:28:14.627Z,95750.00
2022-08-03T20:32:24.393Z,95749.00
2022-08-03T20:36:27.961Z,95752.00
2022-08-03T20:40:30.753Z,95748.00
2022-08-03T20:44:33.620Z,95742.00
2022-08-03T20:48:38.121Z,95741.00
2022-08-03T20:52:43.992Z,95751.00
2022-08-03T20:56:52.846Z,95745.00
2022-08-03T21:00:56.703Z,95743.00
2022-08-03T21:05:03.256Z,95741.00
2022-08-03T21:09:33.458Z,95745.00
2022-08-03T21:12:57.105Z,95704.00
2022-08-03T21:13:52.249Z,95748.00
2022-08-03T21:17:57.439Z,95746.00
2022-08-03T21:22:04.416Z,95747.00
2022-08-03T21:26:08.716Z,95744.00
2022-08-03T21:30:12.753Z,95737.00
2022-08-03T21:34:16.300Z,95734.00
2022-08-03T21:38:20.674Z,95738.00
2022-08-03T21:42:32.900Z,95740.00
2022-08-03T21:46:37.765Z,95737.00
2022-08-03T21:50:42.415Z,95730.00
2022-08-03T21:54:50.087Z,95730.00
2022-08-03T21:58:56.164Z,95725.00
2022-08-03T22:03:00.182Z,95732.00
2022-08-03T22:07:18.825Z,95725.00
2022-08-03T22:11:23.499Z,95723.00
2022-08-03T22:15:26.730Z,95717.00
2022-08-03T22:19:29.534Z,95727.00
2022-08-03T22:23:32.593Z,95726.00
2022-08-03T22:27:40.138Z,95727.00
2022-08-03T22:31:58.057Z,95730.00
2022-08-03T22:36:05.973Z,95730.00
2022-08-03T22:40:11.618Z,95731.00
2022-08-03T22:44:16.208Z,95731.00
2022-08-03T22:48:19.747Z,95728.00
2022-08-03T22:52:23.571Z,95722.00
2022-08-03T22:56:26.329Z,95726.00
2022-08-03T23:00:30.544Z,95727.00
2022-08-03T23:04:34.885Z,95717.00
2022-08-03T23:08:38.874Z,95722.00
2022-08-03T23:12:43.019Z,95719.00
2022-08-03T23:16:48.632Z,95722.00
2022-08-03T23:20:52.556Z,95716.00
2022-08-03T23:24:56.954Z,95721.00
2022-08-03T23:29:01.590Z,95724.00
2022-08-03T23:33:06.601Z,95723.00
2022-08-03T23:37:13.879Z,95714.00
2022-08-03T23:41:18.586Z,95706.00
2022-08-03T23:45:21.886Z,95703.00
2022-08-03T23:49:26.004Z,95706.00
2022-08-03T23:53:39.953Z,95701.00
2022-08-03T23:57:57.643Z,95689.00
